Terminal Aerodrome Forecast
Issued by NWS Twin Cities, MN

Home | Current Version | Previous Version | Graphics & Text | Print | Product List | Glossary On
Versions: 1 2 3 4 5 6 7 8 9 10 11 12 13 14 15 16 17 18
519
FTUS43 KMPX 270859 AAA
TAFEAU
TAF AMD
KEAU 270859Z 2709/2806 36004KT P6SM SCT007 OVC015
      TEMPO 2709/2712 BKN007
     FM271400 02006KT P6SM OVC020
     FM271900 03006KT P6SM BKN025 OVC080
     FM280000 06004KT P6SM SCT030 BKN090=

USA.gov is the U.S. government's official web portal to all federal, state and local government web resources and services.